sensor_id;sensor_type;location;lat;lon;timestamp;pressure;altitude;pressure_sealevel;temperature;humidity
60817;BME280;51921;51.518;-3.188;2023-03-13T00:01:48;99029.23;;;8.59;100.00
60817;BME280;51921;51.518;-3.188;2023-03-13T00:04:13;99020.62;;;8.46;100.00
60817;BME280;51921;51.518;-3.188;2023-03-13T00:06:39;99011.25;;;7.84;100.00
60817;BME280;51921;51.518;-3.188;2023-03-13T00:09:05;99017.40;;;8.73;100.00
60817;BME280;51921;51.518;-3.188;2023-03-13T00:11:29;99021.71;;;7.97;100.00
60817;BME280;51921;51.518;-3.188;2023-03-13T00:13:56;99012.76;;;8.35;100.00
60817;BME280;51921;51.518;-3.188;2023-03-13T00:16:20;99009.34;;;7.29;100.00
60817;BME280;51921;51.518;-3.188;2023-03-13T00:18:47;99016.48;;;8.29;100.00
60817;BME280;51921;51.518;-3.188;2023-03-13T00:21:11;99002.68;;;8.21;100.00
60817;BME280;51921;51.518;-3.188;2023-03-13T00:23:37;99001.18;;;7.71;100.00
60817;BME280;51921;51.518;-3.188;2023-03-13T00:26:04;99007.08;;;8.09;100.00
60817;BME280;51921;51.518;-3.188;2023-03-13T00:28:29;98998.52;;;7.91;100.00
60817;BME280;51921;51.518;-3.188;2023-03-13T00:31:01;98991.57;;;8.11;100.00
60817;BME280;51921;51.518;-3.188;2023-03-13T00:33:18;98987.16;;;7.88;100.00
60817;BME280;51921;51.518;-3.188;2023-03-13T00:35:43;98985.29;;;7.99;100.00
60817;BME280;51921;51.518;-3.188;2023-03-13T00:38:09;98986.36;;;7.84;100.00
60817;BME280;51921;51.518;-3.188;2023-03-13T00:40:34;98981.55;;;8.18;100.00
60817;BME280;51921;51.518;-3.188;2023-03-13T00:43:00;98966.49;;;7.94;100.00
60817;BME280;51921;51.518;-3.188;2023-03-13T00:45:25;98966.10;;;8.76;100.00
60817;BME280;51921;51.518;-3.188;2023-03-13T00:47:51;98955.67;;;8.87;100.00
60817;BME280;51921;51.518;-3.188;2023-03-13T00:50:16;98955.98;;;8.33;100.00
60817;BME280;51921;51.518;-3.188;2023-03-13T00:52:42;98959.95;;;8.10;100.00
60817;BME280;51921;51.518;-3.188;2023-03-13T00:55:09;98957.15;;;7.83;100.00
60817;BME280;51921;51.518;-3.188;2023-03-13T00:57:33;98953.34;;;7.91;100.00
60817;BME280;51921;51.518;-3.188;2023-03-13T00:59:58;98949.33;;;8.00;100.00
60817;BME280;51921;51.518;-3.188;2023-03-13T01:02:24;98947.08;;;7.98;100.00
60817;BME280;51921;51.518;-3.188;2023-03-13T01:04:49;98945.37;;;8.57;100.00
60817;BME280;51921;51.518;-3.188;2023-03-13T01:07:15;98944.78;;;8.55;100.00
60817;BME280;51921;51.518;-3.188;2023-03-13T01:09:40;98938.18;;;8.53;100.00
60817;BME280;51921;51.518;-3.188;2023-03-13T01:12:06;98932.62;;;8.51;100.00
60817;BME280;51921;51.518;-3.188;2023-03-13T01:14:31;98930.68;;;8.16;100.00
60817;BME280;51921;51.518;-3.188;2023-03-13T01:16:56;98926.79;;;8.26;100.00
60817;BME280;51921;51.518;-3.188;2023-03-13T01:19:22;98923.08;;;8.11;100.00
60817;BME280;51921;51.518;-3.188;2023-03-13T01:21:47;98925.55;;;8.35;100.00
60817;BME280;51921;51.518;-3.188;2023-03-13T01:24:13;98922.92;;;8.38;100.00
60817;BME280;51921;51.518;-3.188;2023-03-13T01:26:38;98926.64;;;8.39;100.00
60817;BME280;51921;51.518;-3.188;2023-03-13T01:29:04;98916.96;;;8.03;100.00
60817;BME280;51921;51.518;-3.188;2023-03-13T01:31:31;98920.58;;;8.39;100.00
60817;BME280;51921;51.518;-3.188;2023-03-13T01:33:57;98916.58;;;8.59;100.00
60817;BME280;51921;51.518;-3.188;2023-03-13T01:36:20;98906.52;;;8.06;100.00
60817;BME280;51921;51.518;-3.188;2023-03-13T01:38:47;98909.18;;;8.16;100.00
60817;BME280;51921;51.518;-3.188;2023-03-13T01:41:11;98916.13;;;8.64;100.00
60817;BME280;51921;51.518;-3.188;2023-03-13T01:43:37;98907.92;;;8.82;100.00
60817;BME280;51921;51.518;-3.188;2023-03-13T01:46:09;98908.23;;;8.69;100.00
60817;BME280;51921;51.518;-3.188;2023-03-13T01:48:37;98909.83;;;8.26;100.00
60817;BME280;51921;51.518;-3.188;2023-03-13T01:50:54;98904.71;;;8.48;100.00
60817;BME280;51921;51.518;-3.188;2023-03-13T01:53:18;98902.14;;;8.56;100.00
60817;BME280;51921;51.518;-3.188;2023-03-13T01:55:44;98902.82;;;7.96;100.00
60817;BME280;51921;51.518;-3.188;2023-03-13T01:58:09;98898.18;;;7.69;100.00
60817;BME280;51921;51.518;-3.188;2023-03-13T02:00:35;98902.62;;;8.34;100.00
60817;BME280;51921;51.518;-3.188;2023-03-13T02:03:04;98894.12;;;8.45;100.00
60817;BME280;51921;51.518;-3.188;2023-03-13T02:05:26;98885.55;;;8.67;100.00
60817;BME280;51921;51.518;-3.188;2023-03-13T02:07:56;98874.13;;;8.41;100.00
60817;BME280;51921;51.518;-3.188;2023-03-13T02:10:17;98872.95;;;8.39;100.00
60817;BME280;51921;51.518;-3.188;2023-03-13T02:12:43;98873.86;;;8.64;100.00
60817;BME280;51921;51.518;-3.188;2023-03-13T02:15:10;98859.14;;;8.45;100.00
60817;BME280;51921;51.518;-3.188;2023-03-13T02:17:34;98857.93;;;8.14;100.00
60817;BME280;51921;51.518;-3.188;2023-03-13T02:19:58;98852.07;;;8.44;100.00
60817;BME280;51921;51.518;-3.188;2023-03-13T02:22:28;98843.73;;;8.22;100.00
60817;BME280;51921;51.518;-3.188;2023-03-13T02:24:55;98842.80;;;7.92;100.00
60817;BME280;51921;51.518;-3.188;2023-03-13T02:27:15;98855.46;;;8.16;100.00
60817;BME280;51921;51.518;-3.188;2023-03-13T02:29:40;98841.61;;;7.90;100.00
60817;BME280;51921;51.518;-3.188;2023-03-13T02:32:06;98818.52;;;7.87;100.00
60817;BME280;51921;51.518;-3.188;2023-03-13T02:34:33;98835.48;;;7.50;100.00
60817;BME280;51921;51.518;-3.188;2023-03-13T02:36:58;98826.37;;;7.82;100.00
60817;BME280;51921;51.518;-3.188;2023-03-13T02:39:22;98816.81;;;8.06;100.00
60817;BME280;51921;51.518;-3.188;2023-03-13T02:41:48;98807.13;;;8.08;100.00
60817;BME280;51921;51.518;-3.188;2023-03-13T02:44:12;98799.72;;;8.15;100.00
60817;BME280;51921;51.518;-3.188;2023-03-13T02:46:44;98783.15;;;8.42;100.00
60817;BME280;51921;51.518;-3.188;2023-03-13T02:49:20;98767.54;;;8.52;100.00
60817;BME280;51921;51.518;-3.188;2023-03-13T02:51:31;98764.62;;;8.05;100.00
60817;BME280;51921;51.518;-3.188;2023-03-13T02:53:57;98772.19;;;8.69;100.00
60817;BME280;51921;51.518;-3.188;2023-03-13T02:56:22;98769.24;;;8.33;100.00
60817;BME280;51921;51.518;-3.188;2023-03-13T02:58:45;98761.33;;;8.43;100.00
60817;BME280;51921;51.518;-3.188;2023-03-13T03:01:11;98760.85;;;8.80;100.00
60817;BME280;51921;51.518;-3.188;2023-03-13T03:03:36;98752.05;;;8.35;100.00
60817;BME280;51921;51.518;-3.188;2023-03-13T03:06:03;98757.73;;;8.32;100.00
60817;BME280;51921;51.518;-3.188;2023-03-13T03:08:27;98755.20;;;8.73;100.00
60817;BME280;51921;51.518;-3.188;2023-03-13T03:10:52;98751.53;;;8.99;100.00
60817;BME280;51921;51.518;-3.188;2023-03-13T03:13:18;98741.87;;;8.85;100.00
60817;BME280;51921;51.518;-3.188;2023-03-13T03:15:43;98730.14;;;7.92;100.00
60817;BME280;51921;51.518;-3.188;2023-03-13T03:18:09;98728.40;;;8.14;100.00
60817;BME280;51921;51.518;-3.188;2023-03-13T03:20:34;98702.15;;;7.90;100.00
60817;BME280;51921;51.518;-3.188;2023-03-13T03:22:59;98706.94;;;8.27;100.00
60817;BME280;51921;51.518;-3.188;2023-03-13T03:25:25;98704.11;;;8.21;100.00
60817;BME280;51921;51.518;-3.188;2023-03-13T03:27:50;98699.60;;;8.28;100.00
60817;BME280;51921;51.518;-3.188;2023-03-13T03:30:16;98696.59;;;8.54;100.00
60817;BME280;51921;51.518;-3.188;2023-03-13T03:32:41;98694.73;;;8.06;100.00
60817;BME280;51921;51.518;-3.188;2023-03-13T03:35:07;98697.01;;;7.88;100.00
60817;BME280;51921;51.518;-3.188;2023-03-13T03:37:32;98682.69;;;8.15;100.00
60817;BME280;51921;51.518;-3.188;2023-03-13T03:39:57;98687.11;;;7.79;100.00
60817;BME280;51921;51.518;-3.188;2023-03-13T03:42:22;98681.40;;;8.11;100.00
60817;BME280;51921;51.518;-3.188;2023-03-13T03:44:48;98678.16;;;7.79;100.00
60817;BME280;51921;51.518;-3.188;2023-03-13T03:47:13;98687.46;;;7.85;100.00
60817;BME280;51921;51.518;-3.188;2023-03-13T03:49:38;98694.51;;;7.33;100.00
60817;BME280;51921;51.518;-3.188;2023-03-13T03:52:04;98687.85;;;7.22;100.00
60817;BME280;51921;51.518;-3.188;2023-03-13T03:54:29;98694.04;;;7.35;100.00
60817;BME280;51921;51.518;-3.188;2023-03-13T03:56:55;98697.18;;;7.21;100.00
60817;BME280;51921;51.518;-3.188;2023-03-13T03:59:20;98683.14;;;7.20;100.00
60817;BME280;51921;51.518;-3.188;2023-03-13T04:01:46;98698.97;;;7.54;100.00
60817;BME280;51921;51.518;-3.188;2023-03-13T04:04:11;98688.58;;;7.17;100.00
60817;BME280;51921;51.518;-3.188;2023-03-13T04:06:37;98689.65;;;7.21;100.00
60817;BME280;51921;51.518;-3.188;2023-03-13T04:09:02;98683.04;;;6.68;100.00
60817;BME280;51921;51.518;-3.188;2023-03-13T04:11:27;98675.14;;;6.99;100.00
60817;BME280;51921;51.518;-3.188;2023-03-13T04:13:53;98665.65;;;7.35;100.00
60817;BME280;51921;51.518;-3.188;2023-03-13T04:16:18;98650.34;;;6.97;100.00
60817;BME280;51921;51.518;-3.188;2023-03-13T04:18:44;98663.90;;;7.17;100.00
60817;BME280;51921;51.518;-3.188;2023-03-13T04:21:09;98653.16;;;7.64;100.00
60817;BME280;51921;51.518;-3.188;2023-03-13T04:23:35;98648.07;;;7.56;100.00
60817;BME280;51921;51.518;-3.188;2023-03-13T04:26:00;98645.58;;;7.06;100.00
60817;BME280;51921;51.518;-3.188;2023-03-13T04:28:25;98639.03;;;7.47;100.00
60817;BME280;51921;51.518;-3.188;2023-03-13T04:30:51;98648.55;;;6.95;100.00
60817;BME280;51921;51.518;-3.188;2023-03-13T04:33:16;98624.18;;;7.50;100.00
60817;BME280;51921;51.518;-3.188;2023-03-13T04:35:43;98643.14;;;7.72;100.00
60817;BME280;51921;51.518;-3.188;2023-03-13T04:38:07;98638.41;;;7.98;100.00
60817;BME280;51921;51.518;-3.188;2023-03-13T04:40:33;98645.97;;;7.35;100.00
60817;BME280;51921;51.518;-3.188;2023-03-13T04:42:59;98638.89;;;7.70;100.00
60817;BME280;51921;51.518;-3.188;2023-03-13T04:45:24;98646.44;;;7.30;100.00
60817;BME280;51921;51.518;-3.188;2023-03-13T04:47:50;98644.97;;;7.50;100.00
60817;BME280;51921;51.518;-3.188;2023-03-13T04:50:15;98634.13;;;8.18;100.00
60817;BME280;51921;51.518;-3.188;2023-03-13T04:52:40;98639.22;;;7.29;100.00
60817;BME280;51921;51.518;-3.188;2023-03-13T04:55:07;98617.44;;;7.64;100.00
60817;BME280;51921;51.518;-3.188;2023-03-13T04:57:32;98622.03;;;7.06;100.00
60817;BME280;51921;51.518;-3.188;2023-03-13T04:59:57;98626.60;;;7.22;100.00
60817;BME280;51921;51.518;-3.188;2023-03-13T05:02:22;98624.99;;;7.27;100.00
60817;BME280;51921;51.518;-3.188;2023-03-13T05:04:48;98618.34;;;7.15;100.00
60817;BME280;51921;51.518;-3.188;2023-03-13T05:07:13;98615.16;;;7.28;100.00
60817;BME280;51921;51.518;-3.188;2023-03-13T05:09:39;98600.65;;;7.19;100.00
60817;BME280;51921;51.518;-3.188;2023-03-13T05:12:04;98603.06;;;7.04;100.00
60817;BME280;51921;51.518;-3.188;2023-03-13T05:14:29;98596.59;;;7.35;100.00
60817;BME280;51921;51.518;-3.188;2023-03-13T05:16:55;98593.86;;;7.55;100.00
60817;BME280;51921;51.518;-3.188;2023-03-13T05:19:21;98588.96;;;7.75;100.00
60817;BME280;51921;51.518;-3.188;2023-03-13T05:21:46;98592.06;;;7.56;100.00
60817;BME280;51921;51.518;-3.188;2023-03-13T05:24:11;98586.80;;;7.25;100.00
60817;BME280;51921;51.518;-3.188;2023-03-13T05:26:37;98589.33;;;7.30;100.00
60817;BME280;51921;51.518;-3.188;2023-03-13T05:29:02;98588.97;;;7.45;100.00
60817;BME280;51921;51.518;-3.188;2023-03-13T05:31:28;98574.54;;;7.03;100.00
60817;BME280;51921;51.518;-3.188;2023-03-13T05:33:53;98570.09;;;7.06;100.00
60817;BME280;51921;51.518;-3.188;2023-03-13T05:36:18;98560.23;;;7.10;100.00
60817;BME280;51921;51.518;-3.188;2023-03-13T05:38:44;98555.84;;;7.77;100.00
60817;BME280;51921;51.518;-3.188;2023-03-13T05:41:09;98539.45;;;7.23;100.00
60817;BME280;51921;51.518;-3.188;2023-03-13T05:43:35;98555.15;;;7.58;100.00
60817;BME280;51921;51.518;-3.188;2023-03-13T05:46:00;98550.62;;;7.32;100.00
60817;BME280;51921;51.518;-3.188;2023-03-13T05:48:26;98548.63;;;7.26;100.00
60817;BME280;51921;51.518;-3.188;2023-03-13T05:50:51;98544.26;;;7.10;100.00
60817;BME280;51921;51.518;-3.188;2023-03-13T05:53:17;98570.66;;;6.82;100.00
60817;BME280;51921;51.518;-3.188;2023-03-13T05:55:42;98552.20;;;6.76;100.00
60817;BME280;51921;51.518;-3.188;2023-03-13T05:58:07;98547.60;;;6.50;100.00
60817;BME280;51921;51.518;-3.188;2023-03-13T06:00:33;98539.83;;;6.14;100.00
60817;BME280;51921;51.518;-3.188;2023-03-13T06:02:58;98543.98;;;6.09;100.00
60817;BME280;51921;51.518;-3.188;2023-03-13T06:05:24;98524.20;;;6.29;100.00
60817;BME280;51921;51.518;-3.188;2023-03-13T06:07:49;98523.74;;;6.14;100.00
60817;BME280;51921;51.518;-3.188;2023-03-13T06:10:14;98536.38;;;6.33;100.00
60817;BME280;51921;51.518;-3.188;2023-03-13T06:12:40;98530.88;;;6.22;100.00
60817;BME280;51921;51.518;-3.188;2023-03-13T06:15:06;98533.15;;;6.02;100.00
60817;BME280;51921;51.518;-3.188;2023-03-13T06:17:31;98535.66;;;6.35;100.00
60817;BME280;51921;51.518;-3.188;2023-03-13T06:19:56;98519.40;;;6.08;100.00
60817;BME280;51921;51.518;-3.188;2023-03-13T06:22:22;98516.95;;;6.18;100.00
60817;BME280;51921;51.518;-3.188;2023-03-13T06:24:48;98518.31;;;6.22;100.00
60817;BME280;51921;51.518;-3.188;2023-03-13T06:27:12;98515.11;;;6.65;100.00
60817;BME280;51921;51.518;-3.188;2023-03-13T06:29:38;98498.05;;;6.06;100.00
60817;BME280;51921;51.518;-3.188;2023-03-13T06:32:04;98504.45;;;6.50;100.00
60817;BME280;51921;51.518;-3.188;2023-03-13T06:34:28;98483.07;;;5.86;100.00
60817;BME280;51921;51.518;-3.188;2023-03-13T06:36:54;98493.51;;;6.66;100.00
60817;BME280;51921;51.518;-3.188;2023-03-13T06:39:20;98488.31;;;6.27;100.00
60817;BME280;51921;51.518;-3.188;2023-03-13T06:41:44;98490.66;;;6.12;100.00
60817;BME280;51921;51.518;-3.188;2023-03-13T06:44:10;98502.67;;;6.15;100.00
60817;BME280;51921;51.518;-3.188;2023-03-13T06:46:35;98500.33;;;6.21;100.00
60817;BME280;51921;51.518;-3.188;2023-03-13T06:49:00;98478.19;;;6.32;100.00
60817;BME280;51921;51.518;-3.188;2023-03-13T06:51:26;98488.15;;;6.25;100.00
60817;BME280;51921;51.518;-3.188;2023-03-13T06:53:52;98472.99;;;5.98;100.00
60817;BME280;51921;51.518;-3.188;2023-03-13T06:56:17;98480.64;;;6.38;100.00
60817;BME280;51921;51.518;-3.188;2023-03-13T06:58:45;98477.36;;;5.85;100.00
60817;BME280;51921;51.518;-3.188;2023-03-13T07:01:09;98475.67;;;5.92;100.00
60817;BME280;51921;51.518;-3.188;2023-03-13T07:03:34;98473.21;;;5.68;100.00
60817;BME280;51921;51.518;-3.188;2023-03-13T07:05:59;98470.20;;;5.66;100.00
60817;BME280;51921;51.518;-3.188;2023-03-13T07:08:25;98472.99;;;5.85;100.00
60817;BME280;51921;51.518;-3.188;2023-03-13T07:10:50;98467.11;;;5.85;100.00
60817;BME280;51921;51.518;-3.188;2023-03-13T07:13:15;98466.60;;;5.68;100.00
60817;BME280;51921;51.518;-3.188;2023-03-13T07:15:41;98454.63;;;6.10;100.00
60817;BME280;51921;51.518;-3.188;2023-03-13T07:18:06;98470.26;;;5.77;100.00
60817;BME280;51921;51.518;-3.188;2023-03-13T07:20:32;98461.97;;;5.93;100.00
60817;BME280;51921;51.518;-3.188;2023-03-13T07:22:57;98462.97;;;5.59;100.00
60817;BME280;51921;51.518;-3.188;2023-03-13T07:25:23;98477.44;;;6.11;100.00
60817;BME280;51921;51.518;-3.188;2023-03-13T07:27:50;98470.85;;;5.88;100.00
60817;BME280;51921;51.518;-3.188;2023-03-13T07:30:14;98465.78;;;6.33;100.00
60817;BME280;51921;51.518;-3.188;2023-03-13T07:32:39;98486.02;;;6.02;100.00
60817;BME280;51921;51.518;-3.188;2023-03-13T07:35:05;98483.59;;;6.19;100.00
60817;BME280;51921;51.518;-3.188;2023-03-13T07:37:30;98483.11;;;6.35;100.00
60817;BME280;51921;51.518;-3.188;2023-03-13T07:39:56;98474.36;;;6.31;100.00
60817;BME280;51921;51.518;-3.188;2023-03-13T07:42:21;98484.13;;;6.16;100.00
60817;BME280;51921;51.518;-3.188;2023-03-13T07:44:46;98482.76;;;6.12;100.00
60817;BME280;51921;51.518;-3.188;2023-03-13T07:47:12;98466.61;;;5.90;100.00
60817;BME280;51921;51.518;-3.188;2023-03-13T07:49:37;98463.90;;;6.43;100.00
60817;BME280;51921;51.518;-3.188;2023-03-13T07:52:03;98478.64;;;6.46;100.00
60817;BME280;51921;51.518;-3.188;2023-03-13T07:54:29;98462.60;;;6.42;100.00
60817;BME280;51921;51.518;-3.188;2023-03-13T07:56:54;98479.09;;;6.57;100.00
60817;BME280;51921;51.518;-3.188;2023-03-13T07:59:20;98472.09;;;6.57;100.00
60817;BME280;51921;51.518;-3.188;2023-03-13T08:01:44;98458.60;;;6.64;100.00
60817;BME280;51921;51.518;-3.188;2023-03-13T08:04:12;98471.19;;;6.91;100.00
60817;BME280;51921;51.518;-3.188;2023-03-13T08:06:36;98482.58;;;6.60;100.00
60817;BME280;51921;51.518;-3.188;2023-03-13T08:09:02;98483.80;;;6.87;100.00
60817;BME280;51921;51.518;-3.188;2023-03-13T08:11:27;98476.24;;;6.96;100.00
60817;BME280;51921;51.518;-3.188;2023-03-13T08:13:53;98471.81;;;7.19;100.00
60817;BME280;51921;51.518;-3.188;2023-03-13T08:16:21;98468.13;;;6.68;100.00
60817;BME280;51921;51.518;-3.188;2023-03-13T08:18:45;98487.72;;;6.88;100.00
60817;BME280;51921;51.518;-3.188;2023-03-13T08:21:10;98459.31;;;6.78;100.00
60817;BME280;51921;51.518;-3.188;2023-03-13T08:23:35;98471.17;;;7.26;100.00
60817;BME280;51921;51.518;-3.188;2023-03-13T08:26:02;98489.46;;;7.18;100.00
60817;BME280;51921;51.518;-3.188;2023-03-13T08:28:25;98470.89;;;6.79;100.00
60817;BME280;51921;51.518;-3.188;2023-03-13T08:30:51;98476.22;;;7.10;100.00
60817;BME280;51921;51.518;-3.188;2023-03-13T08:33:16;98475.50;;;6.99;100.00
60817;BME280;51921;51.518;-3.188;2023-03-13T08:35:41;98493.81;;;7.07;100.00
60817;BME280;51921;51.518;-3.188;2023-03-13T08:38:07;98478.33;;;7.18;100.00
60817;BME280;51921;51.518;-3.188;2023-03-13T08:40:32;98479.35;;;7.32;100.00
60817;BME280;51921;51.518;-3.188;2023-03-13T08:42:58;98473.46;;;7.37;100.00
60817;BME280;51921;51.518;-3.188;2023-03-13T08:45:23;98482.47;;;7.72;100.00
60817;BME280;51921;51.518;-3.188;2023-03-13T08:47:51;98475.61;;;7.26;100.00
60817;BME280;51921;51.518;-3.188;2023-03-13T08:50:15;98472.96;;;7.76;100.00
60817;BME280;51921;51.518;-3.188;2023-03-13T08:52:40;98493.87;;;7.41;100.00
60817;BME280;51921;51.518;-3.188;2023-03-13T08:55:06;98499.34;;;7.49;100.00
60817;BME280;51921;51.518;-3.188;2023-03-13T08:57:30;98490.09;;;7.18;100.00
60817;BME280;51921;51.518;-3.188;2023-03-13T08:59:56;98490.08;;;7.70;100.00
60817;BME280;51921;51.518;-3.188;2023-03-13T09:02:21;98490.90;;;7.82;100.00
60817;BME280;51921;51.518;-3.188;2023-03-13T09:04:47;98491.82;;;7.39;100.00
60817;BME280;51921;51.518;-3.188;2023-03-13T09:07:11;98498.72;;;7.17;100.00
60817;BME280;51921;51.518;-3.188;2023-03-13T09:09:37;98507.39;;;7.53;100.00
60817;BME280;51921;51.518;-3.188;2023-03-13T09:12:03;98507.32;;;7.20;100.00
60817;BME280;51921;51.518;-3.188;2023-03-13T09:14:28;98511.44;;;7.59;100.00
60817;BME280;51921;51.518;-3.188;2023-03-13T09:16:53;98510.06;;;7.50;100.00
60817;BME280;51921;51.518;-3.188;2023-03-13T09:19:19;98520.48;;;7.64;100.00
60817;BME280;51921;51.518;-3.188;2023-03-13T09:21:44;98510.63;;;7.67;100.00
60817;BME280;51921;51.518;-3.188;2023-03-13T09:24:11;98516.20;;;7.60;100.00
60817;BME280;51921;51.518;-3.188;2023-03-13T09:26:36;98515.74;;;7.62;100.00
60817;BME280;51921;51.518;-3.188;2023-03-13T09:29:01;98532.44;;;7.74;100.00
60817;BME280;51921;51.518;-3.188;2023-03-13T09:31:28;98523.33;;;7.19;100.00
60817;BME280;51921;51.518;-3.188;2023-03-13T09:33:53;98528.48;;;7.46;100.00
60817;BME280;51921;51.518;-3.188;2023-03-13T09:36:18;98534.66;;;7.16;100.00
60817;BME280;51921;51.518;-3.188;2023-03-13T09:38:43;98508.15;;;7.40;100.00
60817;BME280;51921;51.518;-3.188;2023-03-13T09:41:20;98536.80;;;7.29;100.00
60817;BME280;51921;51.518;-3.188;2023-03-13T09:43:39;98506.86;;;6.88;100.00
60817;BME280;51921;51.518;-3.188;2023-03-13T09:46:01;98534.00;;;7.09;100.00
60817;BME280;51921;51.518;-3.188;2023-03-13T09:48:29;98527.86;;;7.39;100.00
60817;BME280;51921;51.518;-3.188;2023-03-13T09:50:57;98527.16;;;7.18;100.00
60817;BME280;51921;51.518;-3.188;2023-03-13T09:53:19;98527.85;;;7.40;100.00
60817;BME280;51921;51.518;-3.188;2023-03-13T09:55:43;98516.20;;;7.34;100.00
60817;BME280;51921;51.518;-3.188;2023-03-13T09:58:12;98519.05;;;7.79;100.00
60817;BME280;51921;51.518;-3.188;2023-03-13T10:00:36;98530.59;;;8.95;100.00
60817;BME280;51921;51.518;-3.188;2023-03-13T10:03:04;98498.51;;;8.94;100.00
60817;BME280;51921;51.518;-3.188;2023-03-13T10:05:28;98527.13;;;9.34;100.00
60817;BME280;51921;51.518;-3.188;2023-03-13T10:07:50;98519.26;;;9.67;100.00
60817;BME280;51921;51.518;-3.188;2023-03-13T10:10:16;98509.02;;;10.06;100.00
60817;BME280;51921;51.518;-3.188;2023-03-13T10:12:44;98519.64;;;9.59;100.00
60817;BME280;51921;51.518;-3.188;2023-03-13T10:15:22;98514.54;;;10.08;100.00
60817;BME280;51921;51.518;-3.188;2023-03-13T10:17:34;98522.22;;;9.22;100.00
60817;BME280;51921;51.518;-3.188;2023-03-13T10:20:00;98524.32;;;9.73;100.00
60817;BME280;51921;51.518;-3.188;2023-03-13T10:22:25;98521.67;;;10.05;100.00
60817;BME280;51921;51.518;-3.188;2023-03-13T10:24:53;98518.74;;;9.60;100.00
60817;BME280;51921;51.518;-3.188;2023-03-13T10:27:14;98512.21;;;9.25;100.00
60817;BME280;51921;51.518;-3.188;2023-03-13T10:29:38;98518.19;;;9.32;100.00
60817;BME280;51921;51.518;-3.188;2023-03-13T10:32:06;98522.08;;;8.94;100.00
60817;BME280;51921;51.518;-3.188;2023-03-13T10:36:57;98503.26;;;8.95;100.00
60817;BME280;51921;51.518;-3.188;2023-03-13T10:39:21;98524.36;;;8.91;100.00
60817;BME280;51921;51.518;-3.188;2023-03-13T10:41:45;98535.43;;;8.57;100.00
60817;BME280;51921;51.518;-3.188;2023-03-13T10:44:16;98536.55;;;8.95;100.00
60817;BME280;51921;51.518;-3.188;2023-03-13T10:46:40;98548.44;;;8.52;100.00
60817;BME280;51921;51.518;-3.188;2023-03-13T10:49:03;98556.57;;;8.68;100.00
60817;BME280;51921;51.518;-3.188;2023-03-13T10:51:34;98536.95;;;8.56;100.00
60817;BME280;51921;51.518;-3.188;2023-03-13T10:53:51;98525.51;;;8.86;100.00
60817;BME280;51921;51.518;-3.188;2023-03-13T10:56:23;98533.56;;;9.09;100.00
60817;BME280;51921;51.518;-3.188;2023-03-13T10:58:44;98535.63;;;9.13;100.00
60817;BME280;51921;51.518;-3.188;2023-03-13T11:01:17;98543.60;;;9.54;100.00
60817;BME280;51921;51.518;-3.188;2023-03-13T11:03:33;98546.77;;;9.49;100.00
60817;BME280;51921;51.518;-3.188;2023-03-13T11:06:01;98541.14;;;9.38;100.00
60817;BME280;51921;51.518;-3.188;2023-03-13T11:08:26;98543.67;;;9.58;100.00
60817;BME280;51921;51.518;-3.188;2023-03-13T11:10:56;98545.87;;;9.57;100.00
60817;BME280;51921;51.518;-3.188;2023-03-13T11:13:27;98535.18;;;9.51;100.00
60817;BME280;51921;51.518;-3.188;2023-03-13T11:15:46;98533.41;;;9.53;100.00
60817;BME280;51921;51.518;-3.188;2023-03-13T11:18:11;98548.03;;;9.50;100.00
60817;BME280;51921;51.518;-3.188;2023-03-13T11:20:34;98536.47;;;9.50;100.00
60817;BME280;51921;51.518;-3.188;2023-03-13T11:23:09;98536.91;;;9.72;100.00
60817;BME280;51921;51.518;-3.188;2023-03-13T11:25:26;98526.33;;;9.76;100.00
60817;BME280;51921;51.518;-3.188;2023-03-13T11:27:57;98525.50;;;10.02;100.00
60817;BME280;51921;51.518;-3.188;2023-03-13T11:30:20;98532.65;;;10.33;100.00
60817;BME280;51921;51.518;-3.188;2023-03-13T11:32:42;98519.16;;;9.64;100.00
60817;BME280;51921;51.518;-3.188;2023-03-13T11:35:06;98519.34;;;10.29;100.00
60817;BME280;51921;51.518;-3.188;2023-03-13T11:37:31;98521.36;;;10.37;100.00
60817;BME280;51921;51.518;-3.188;2023-03-13T11:40:01;98516.29;;;9.95;100.00
60817;BME280;51921;51.518;-3.188;2023-03-13T11:42:34;98520.17;;;9.42;100.00
60817;BME280;51921;51.518;-3.188;2023-03-13T11:44:51;98537.63;;;9.78;100.00
60817;BME280;51921;51.518;-3.188;2023-03-13T11:47:19;98533.58;;;10.05;100.00
60817;BME280;51921;51.518;-3.188;2023-03-13T11:49:44;98525.68;;;9.87;100.00
60817;BME280;51921;51.518;-3.188;2023-03-13T11:52:08;98540.17;;;9.89;100.00
60817;BME280;51921;51.518;-3.188;2023-03-13T11:54:38;98520.23;;;10.15;100.00
60817;BME280;51921;51.518;-3.188;2023-03-13T11:56:55;98516.73;;;10.06;100.00
60817;BME280;51921;51.518;-3.188;2023-03-13T11:59:27;98521.32;;;10.27;100.00
60817;BME280;51921;51.518;-3.188;2023-03-13T12:01:47;98510.69;;;10.81;100.00
60817;BME280;51921;51.518;-3.188;2023-03-13T12:04:13;98492.36;;;11.01;99.41
60817;BME280;51921;51.518;-3.188;2023-03-13T12:06:37;98503.11;;;10.48;99.45
60817;BME280;51921;51.518;-3.188;2023-03-13T12:09:05;98501.15;;;10.38;97.74
60817;BME280;51921;51.518;-3.188;2023-03-13T12:11:26;98503.15;;;10.52;97.14
60817;BME280;51921;51.518;-3.188;2023-03-13T12:13:53;98488.69;;;10.45;97.07
60817;BME280;51921;51.518;-3.188;2023-03-13T12:16:17;98501.16;;;11.11;93.76
60817;BME280;51921;51.518;-3.188;2023-03-13T12:18:41;98498.43;;;11.19;93.32
60817;BME280;51921;51.518;-3.188;2023-03-13T12:21:11;98491.34;;;10.41;96.33
60817;BME280;51921;51.518;-3.188;2023-03-13T12:23:41;98484.64;;;10.21;95.70
60817;BME280;51921;51.518;-3.188;2023-03-13T12:25:58;98487.33;;;11.05;92.87
60817;BME280;51921;51.518;-3.188;2023-03-13T12:28:26;98491.75;;;10.62;93.79
60817;BME280;51921;51.518;-3.188;2023-03-13T12:30:51;98476.01;;;10.30;94.20
60817;BME280;51921;51.518;-3.188;2023-03-13T12:33:17;98478.47;;;10.42;96.56
60817;BME280;51921;51.518;-3.188;2023-03-13T12:35:36;98472.68;;;10.06;97.79
60817;BME280;51921;51.518;-3.188;2023-03-13T12:38:05;98465.17;;;9.32;100.00
60817;BME280;51921;51.518;-3.188;2023-03-13T12:40:31;98469.33;;;9.72;100.00
60817;BME280;51921;51.518;-3.188;2023-03-13T12:42:55;98467.17;;;9.93;100.00